Flight Track Log - Related Links

Times and Time Zones

All times are in EDT time to prevent confusion due to time zone crossing. See the TSS5 flight status page for this flight to view local times or setup timezone preferences in your user account.

Time Position Orientation Groundspeed Altitude Reporting Facility
EDT Latitude Longitude Course Direction KTS MPH feet Rate Location/Type
Mon 10:11:13 AM 38.1039 -87.5200 12° North 120 138 2,800  Level Indianapolis Center
Mon 10:12:15 AM 38.1372 -87.5114 11° North 121 139 3,800 871 Climbing Indianapolis Center
Mon 10:13:17 AM 38.1711 -87.5014 13° North 122 140 4,600 780 Climbing Indianapolis Center
Mon 10:14:18 AM 38.2056 -87.4925 11° North 123 142 5,400 732 Climbing Indianapolis Center
Mon 10:15:00 AM 38.3049 -87.4653 12° North  Level FlightAware Approximate
Mon 10:15:20 AM 38.2406 -87.4867 North 125 144 6,100  Level Indianapolis Center
Mon 10:16:00 AM 38.3497 -87.4530 12° North  Level FlightAware Approximate
Mon 10:16:22 AM 38.2772 -87.4794 North 128 147 6,700  Level Indianapolis Center
Mon 10:17:23 AM 38.3228 -87.4708 North 136 157 7,100 195 Climbing Indianapolis Center
Mon 10:18:25 AM 38.3658 -87.4564 15° North 152 175 7,100  Level Indianapolis Center
Mon 10:19:27 AM 38.4119 -87.4425 13° North 164 189 7,100  Level Indianapolis Center
Mon 10:20:28 AM 38.4572 -87.4314 11° North 165 190 7,100  Level Indianapolis Center
Mon 10:21:30 AM 38.5033 -87.4186 12° North 168 193 7,100  Level Indianapolis Center
Mon 10:22:31 AM 38.5481 -87.4106 North 163 188 7,100  Level Indianapolis Center
Mon 10:23:33 AM 38.5933 -87.3986 12° North 164 189 7,100  Level Indianapolis Center
Mon 10:24:35 AM 38.6392 -87.3872 11° North 166 191 7,100  Level Indianapolis Center
Mon 10:25:36 AM 38.6856 -87.3761 11° North 168 193 7,100  Level Indianapolis Center
Mon 10:26:38 AM 38.7314 -87.3639 12° North 167 192 7,100  Level Indianapolis Center
Mon 10:27:40 AM 38.7861 -87.3508 11° North 167 192 7,100  Level Indianapolis Center
Mon 10:28:41 AM 38.8311 -87.3400 11° North 165 190 7,100  Level Indianapolis Center
Mon 10:29:43 AM 38.8761 -87.3278 12° North 164 189 7,100  Level Indianapolis Center
Mon 10:30:45 AM 38.9233 -87.3169 10° North 169 194 7,100  Level Indianapolis Center
Mon 10:31:46 AM 38.9672 -87.3056 11° North 164 189 7,100  Level Indianapolis Center
Mon 10:32:48 AM 39.0128 -87.2942 11° North 164 189 7,100  Level Indianapolis Center
Mon 10:33:50 AM 39.0575 -87.2842 10° North 163 188 7,100  Level Indianapolis Center
Mon 10:34:51 AM 39.1025 -87.2719 12° North 163 188 7,100  Level Indianapolis Center
Mon 10:35:53 AM 39.1481 -87.2603 11° North 162 186 7,100  Level Indianapolis Center
Mon 10:36:54 AM 39.1931 -87.2497 10° North 164 189 7,100  Level Indianapolis Center
Mon 10:37:56 AM 39.2456 -87.2358 12° North 162 186 7,100  Level Indianapolis Center
Mon 10:38:58 AM 39.2919 -87.2242 11° North 165 190 7,100  Level Indianapolis Center
Mon 10:39:59 AM 39.3375 -87.2147 North 166 191 7,100  Level Indianapolis Center
Mon 10:41:01 AM 39.3806 -87.2025 12° North 164 189 7,100  Level Indianapolis Center
Mon 10:42:03 AM 39.4250 -87.1903 12° North 162 186 7,100  Level Indianapolis Center
Mon 10:43:04 AM 39.4697 -87.1789 11° North 164 189 7,100  Level Indianapolis Center
Mon 10:44:06 AM 39.5150 -87.1678 11° North 165 190 7,100  Level Indianapolis Center
Mon 10:45:08 AM 39.5603 -87.1567 11° North 166 191 7,100  Level Indianapolis Center
Mon 10:46:10 AM 39.6147 -87.1433 11° North 166 191 7,100  Level Indianapolis Center
Mon 10:47:11 AM 39.6597 -87.1317 11° North 165 190 7,100  Level Indianapolis Center
Mon 10:48:13 AM 39.7058 -87.1206 11° North 167 192 7,100  Level Indianapolis Center
Mon 10:49:15 AM 39.7519 -87.1081 12° North 169 194 7,100  Level Indianapolis Center
Mon 10:50:16 AM 39.7978 -87.0964 11° North 168 193 7,100  Level Indianapolis Center
Mon 10:51:18 AM 39.8419 -87.0842 12° North 165 190 7,100 -48 Level Indianapolis Center
Mon 10:52:20 AM 39.8853 -87.0736 11° North 161 185 7,000 -532 Descending Indianapolis Center
Mon 10:53:22 AM 39.9422 -87.0594 11° North 171 197 6,000 -878 Descending Indianapolis Center
Mon 10:54:23 AM 39.9925 -87.0453 12° North 179 206 5,200 -439 Descending Indianapolis Center
Mon 10:55:25 AM 40.0414 -87.0325 11° North 181 208 5,100 -48 Descending Indianapolis Center
Mon 10:56:27 AM 40.0864 -87.0214 11° North 175 201 5,100  Level Indianapolis Center
Mon 10:57:29 AM 40.1306 -87.0100 11° North 169 194 5,100  Level Indianapolis Center
Mon 10:58:07 AM 40.1567 -87.0042 10° North 163 188 5,100 -300 Level Chicago Center
Mon 10:59:09 AM 40.2097 -86.9894 12° North 162 186 4,600 -677 Descending Chicago Center
Mon 11:00:11 AM 40.2561 -86.9781 11° North 164 189 3,700 -726 Descending Chicago Center
Mon 11:01:13 AM 40.3036 -86.9656 11° North 168 193 3,100 -290 Descending Chicago Center
Mon 11:02:15 AM 40.3500 -86.9525 12° North 166 191 3,100 -145 Level Chicago Center
Mon 11:03:17 AM 40.3897 -86.9431 10° North 159 183 2,800 -290 Descending Chicago Center

Login

Don't have an account? Register now (free) for customized features, flight alerts, and more!